Industry, Iowa
Current Conditions -  °F | °C
As of 8:55 AM on Wednesday 22 Oct 2014 (Local Time) from KSLB Reporting Station
Clear Clear  
Wind Chill: 39°   Ceiling: Unl
Heat Index: 46°   Visibility: 10mi
Dew Point: 41°   Wind: 20mph
Humidity: 81%   Direction: 150°SSE
Pressure: 30.11"   Gusts: 25mph
Location:  42.6318°N, 94.8166°W
Report Text: KSLB 221355Z AUTO 15017G22KT 10SM CLR 08/05 A3011 RMK AO2
Loading
Personal Weather Stations






























Interactive Weather Map
Tropical Storm Tracking
New forecast layout! Learn more

10-Day Weather Forecast

Advertisements
Track Severe Weather on mobile